Time;durP1;ratioP1;P1;durP2;ratioP2;P2;SDS_P1;SDS_P2;PMS_P1;PMS_P2;Temp;Humidity;BMP_temperature;BMP_pressure;BME280_temperature;BME280_humidity;BME280_pressure;Samples;Min_cycle;Max_cycle;Signal;HPM_P1;HPM_P2
2023/03/01 00:00:00;;;;;;;127.60;42.40;;;;;;;-5.37;64.39;101570.36;131023;1266;110271;-75
2023/03/01 00:03:05;;;;;;;131.50;40.90;;;;;;;-5.32;64.51;101567.70;131024;1256;107537;-75
2023/03/01 00:06:12;;;;;;;120.30;38.20;;;;;;;-5.40;64.01;101560.16;130954;1256;108680;-76
2023/03/01 00:09:17;;;;;;;127.20;39.70;;;;;;;-5.47;64.32;101557.99;130920;1253;107323;-74
2023/03/01 00:12:23;;;;;;;112.60;36.40;;;;;;;-5.48;63.89;101557.49;130913;1256;107516;-75
2023/03/01 00:15:29;;;;;;;110.70;37.30;;;;;;;-5.66;63.86;101563.61;130908;1254;107402;-75
2023/03/01 00:18:34;;;;;;;112.50;37.30;;;;;;;-5.66;64.56;101568.45;131070;1252;107531;-76
2023/03/01 00:21:40;;;;;;;121.00;40.50;;;;;;;-5.70;63.74;101564.67;131172;1256;107560;-77
2023/03/01 00:24:46;;;;;;;102.40;36.50;;;;;;;-5.70;64.62;101566.95;131086;1255;107636;-75
2023/03/01 00:27:52;;;;;;;103.50;34.90;;;;;;;-5.64;64.73;101575.02;131086;1256;107520;-74
2023/03/01 00:31:03;;;;;;;98.00;33.50;;;;;;;-5.65;64.38;101576.59;131144;1255;107528;-74
2023/03/01 00:34:10;;;;;;;102.80;36.20;;;;;;;-5.65;64.51;101578.51;131133;1256;107551;-75
2023/03/01 00:37:15;;;;;;;102.30;35.00;;;;;;;-5.68;64.29;101576.27;131162;1256;107550;-75
2023/03/01 00:40:21;;;;;;;106.80;36.50;;;;;;;-5.66;64.77;101575.38;130950;1255;105410;-76
2023/03/01 00:43:27;;;;;;;103.60;34.80;;;;;;;-5.60;64.57;101576.35;130920;1256;106468;-74
2023/03/01 00:46:33;;;;;;;115.20;38.50;;;;;;;-5.54;64.35;101570.23;130990;1256;108704;-76
2023/03/01 00:49:39;;;;;;;104.10;35.30;;;;;;;-5.52;64.76;101562.56;130836;1256;107544;-76
2023/03/01 00:52:45;;;;;;;92.70;32.00;;;;;;;-5.46;64.77;101556.79;130976;1253;108400;-75
2023/03/01 00:55:51;;;;;;;77.00;30.30;;;;;;;-5.41;64.71;101548.91;130925;1255;107605;-77
2023/03/01 00:58:57;;;;;;;78.20;29.10;;;;;;;-5.37;64.97;101551.45;130886;1266;107542;-74
2023/03/01 01:02:02;;;;;;;77.40;28.80;;;;;;;-5.32;64.96;101552.27;130886;1253;107269;-75
2023/03/01 01:05:09;;;;;;;68.80;26.30;;;;;;;-5.28;64.73;101550.83;130923;1256;107642;-76
2023/03/01 01:08:15;;;;;;;72.60;26.30;;;;;;;-5.24;64.82;101549.72;130796;1253;106542;-76
2023/03/01 01:11:22;;;;;;;66.60;24.80;;;;;;;-5.17;64.34;101545.64;130934;1255;107580;-76
2023/03/01 01:14:27;;;;;;;68.60;26.20;;;;;;;-5.19;64.74;101539.41;130797;1256;108496;-74
2023/03/01 01:17:33;;;;;;;76.30;26.40;;;;;;;-5.08;64.67;101538.40;131061;1256;107564;-74
2023/03/01 01:20:39;;;;;;;85.30;30.40;;;;;;;-5.04;64.55;101532.96;131180;1253;107870;-76
2023/03/01 01:23:45;;;;;;;73.60;27.90;;;;;;;-5.03;64.48;101531.73;131232;1256;107661;-74
2023/03/01 01:26:51;;;;;;;68.40;26.60;;;;;;;-5.03;64.59;101524.45;131266;1256;107515;-75
2023/03/01 01:29:57;;;;;;;68.10;27.10;;;;;;;-5.00;64.82;101521.12;131016;1256;107228;-75
2023/03/01 01:33:02;;;;;;;65.70;26.50;;;;;;;-4.99;64.82;101511.21;130964;1255;107243;-74
2023/03/01 01:36:10;;;;;;;64.60;26.00;;;;;;;-5.03;64.61;101506.05;130881;1256;107487;-75
2023/03/01 01:39:15;;;;;;;69.20;26.00;;;;;;;-5.10;64.44;101500.95;131050;1256;108662;-76
2023/03/01 01:42:21;;;;;;;72.20;28.20;;;;;;;-5.11;64.74;101496.98;131078;1266;107361;-74
2023/03/01 01:45:34;;;;;;;69.30;27.10;;;;;;;-5.13;64.57;101487.30;131023;1253;107476;-75
2023/03/01 01:48:45;;;;;;;67.30;25.70;;;;;;;-5.12;65.03;101483.45;131009;1256;106548;-75
2023/03/01 01:51:57;;;;;;;63.60;25.30;;;;;;;-5.11;64.92;101480.16;130948;1256;107514;-74
2023/03/01 01:55:07;;;;;;;62.90;26.40;;;;;;;-5.15;65.02;101473.95;130923;1255;107349;-74
2023/03/01 01:58:17;;;;;;;58.30;23.70;;;;;;;-5.16;65.01;101475.89;130867;1252;108360;-76
2023/03/01 02:01:22;;;;;;;76.80;29.00;;;;;;;-5.18;64.94;101468.45;130912;1256;107631;-75
2023/03/01 02:04:29;;;;;;;84.50;31.90;;;;;;;-5.21;65.30;101463.47;130834;1255;107462;-74
2023/03/01 02:07:35;;;;;;;82.20;30.90;;;;;;;-5.21;65.03;101470.41;130760;1259;107640;-74
2023/03/01 02:10:41;;;;;;;87.70;32.70;;;;;;;-5.34;64.59;101466.62;130779;1256;106844;-74
2023/03/01 02:13:49;;;;;;;72.00;28.00;;;;;;;-5.43;64.60;101464.15;130870;1257;107210;-74
2023/03/01 02:16:55;;;;;;;64.10;24.60;;;;;;;-5.42;65.14;101460.84;130767;1256;105553;-75
2023/03/01 02:20:17;;;;;;;55.80;23.70;;;;;;;-5.41;65.10;101457.88;130793;1255;105329;-75
2023/03/01 02:23:21;;;;;;;;;;;;;;;-5.45;64.67;101455.31;130842;1256;107519;-77
2023/03/01 02:26:36;;;;;;;51.80;20.90;;;;;;;-5.58;64.97;101454.81;130782;1255;108096;-75
2023/03/01 02:29:43;;;;;;;54.00;23.00;;;;;;;-5.69;64.89;101454.27;130829;1256;107425;-75
2023/03/01 02:32:52;;;;;;;52.40;22.60;;;;;;;-5.73;65.72;101455.36;130728;1257;107425;-75
2023/03/01 02:35:59;;;;;;;53.00;21.50;;;;;;;-5.67;65.39;101453.37;130883;1257;107680;-75
2023/03/01 02:39:06;;;;;;;52.00;22.50;;;;;;;-5.69;65.31;101448.20;130868;1258;108674;-75
2023/03/01 02:42:15;;;;;;;52.90;21.90;;;;;;;-5.68;65.30;101455.81;130787;1257;107526;-74
2023/03/01 02:45:21;;;;;;;49.80;21.10;;;;;;;-5.66;65.57;101454.91;131069;1256;108660;-75
2023/03/01 02:48:26;;;;;;;51.60;21.80;;;;;;;-5.65;65.46;101455.95;131035;1255;106547;-75
2023/03/01 02:51:53;;;;;;;50.70;22.60;;;;;;;-5.63;65.44;101457.83;131115;1257;107025;-75
2023/03/01 02:55:02;;;;;;;48.80;19.80;;;;;;;-5.72;65.30;101461.41;130852;1259;105681;-77
2023/03/01 02:58:09;;;;;;;47.70;20.60;;;;;;;-5.70;65.47;101461.90;131010;1257;107407;-74
2023/03/01 03:01:16;;;;;;;52.40;20.50;;;;;;;-5.67;65.67;101459.44;130766;1259;108246;-76
2023/03/01 03:04:22;;;;;;;55.40;22.30;;;;;;;-5.63;65.72;101457.30;130799;1256;106185;-74
2023/03/01 03:07:28;;;;;;;46.80;20.70;;;;;;;-5.59;65.92;101452.40;130644;1257;108544;-75
2023/03/01 03:10:36;;;;;;;47.20;20.60;;;;;;;-5.58;65.55;101457.40;130709;1259;107592;-74
2023/03/01 03:13:47;;;;;;;47.80;20.20;;;;;;;-5.59;65.50;101457.77;130788;1253;107272;-75
2023/03/01 03:16:53;;;;;;;47.70;19.90;;;;;;;-5.60;65.38;101454.67;130790;1253;107540;-75
2023/03/01 03:19:59;;;;;;;45.30;19.50;;;;;;;-5.61;65.67;101451.91;130895;1253;107546;-76
2023/03/01 03:23:05;;;;;;;48.30;20.90;;;;;;;-5.63;65.78;101450.02;130821;1256;107069;-74
2023/03/01 03:26:13;;;;;;;48.70;20.60;;;;;;;-5.63;65.56;101450.73;130731;1253;108075;-74
2023/03/01 03:29:18;;;;;;;46.20;19.10;;;;;;;-5.66;65.68;101458.03;130859;1256;108374;-74
2023/03/01 03:32:24;;;;;;;47.50;21.00;;;;;;;-5.69;65.78;101456.52;130917;1256;107551;-74
2023/03/01 03:35:32;;;;;;;43.30;19.70;;;;;;;-5.67;65.88;101455.98;130976;1256;107623;-74
2023/03/01 03:38:38;;;;;;;48.00;20.20;;;;;;;-5.63;65.82;101452.45;131060;1256;107435;-78
2023/03/01 03:41:44;;;;;;;43.50;20.30;;;;;;;-5.62;66.01;101444.81;131069;1253;107713;-74
2023/03/01 03:44:50;;;;;;;40.60;18.80;;;;;;;-5.62;65.91;101442.21;130938;1256;105401;-75
2023/03/01 03:47:56;;;;;;;50.00;19.00;;;;;;;-5.63;65.64;101444.30;130972;1255;109245;-75
2023/03/01 03:51:05;;;;;;;44.40;19.20;;;;;;;-5.67;65.96;101437.25;130998;1256;108513;-75
2023/03/01 03:54:11;;;;;;;42.80;18.60;;;;;;;-5.64;66.05;101439.47;130940;1256;107258;-76
2023/03/01 03:57:17;;;;;;;41.70;19.10;;;;;;;-5.66;65.59;101437.59;131068;1256;106390;-75
2023/03/01 04:00:24;;;;;;;41.70;19.30;;;;;;;-5.67;65.87;101438.48;131138;1256;107088;-74
2023/03/01 04:03:31;;;;;;;39.30;18.00;;;;;;;-5.68;65.74;101436.74;131082;1256;107141;-73
2023/03/01 04:06:37;;;;;;;44.50;19.00;;;;;;;-5.69;65.69;101437.63;131065;1264;107294;-73
2023/03/01 04:09:43;;;;;;;44.10;19.30;;;;;;;-5.74;65.64;101433.02;131190;1256;107467;-73
2023/03/01 04:12:48;;;;;;;42.50;18.70;;;;;;;-5.72;66.13;101430.73;130981;1256;107344;-73
2023/03/01 04:15:55;;;;;;;42.80;19.20;;;;;;;-5.69;66.08;101431.05;130946;1256;108501;-72
2023/03/01 04:19:00;;;;;;;42.50;19.20;;;;;;;-5.67;66.24;101426.16;131032;1256;107536;-73
2023/03/01 04:22:09;;;;;;;41.60;18.80;;;;;;;-5.68;66.22;101426.36;130956;1256;107555;-73
2023/03/01 04:25:15;;;;;;;41.40;19.40;;;;;;;-5.67;65.96;101423.05;130899;1256;106678;-74
2023/03/01 04:28:20;;;;;;;41.10;19.00;;;;;;;-5.67;65.92;101425.29;130913;1255;105961;-73
2023/03/01 04:31:26;;;;;;;43.70;18.60;;;;;;;-5.72;66.03;101420.52;131075;1265;107503;-74
2023/03/01 04:34:32;;;;;;;43.30;19.10;;;;;;;-5.69;66.08;101422.04;130977;1253;107379;-72
2023/03/01 04:37:37;;;;;;;42.00;18.50;;;;;;;-5.67;66.22;101423.73;130969;1257;141515;-72
2023/03/01 04:40:43;;;;;;;36.40;18.30;;;;;;;-5.62;66.20;101414.82;131151;1262;107366;-73
2023/03/01 04:43:49;;;;;;;41.00;18.60;;;;;;;-5.59;66.42;101403.16;131085;1256;107521;-73
2023/03/01 04:46:54;;;;;;;38.60;17.80;;;;;;;-5.55;66.09;101387.50;131114;1256;107372;-72
2023/03/01 04:50:00;;;;;;;71.40;27.30;;;;;;;-5.45;66.86;101386.14;131134;1256;107530;-73
2023/03/01 04:53:06;;;;;;;330.60;111.80;;;;;;;-5.28;67.31;101393.86;131154;1256;108729;-72
2023/03/01 04:56:13;;;;;;;293.50;97.60;;;;;;;-5.08;67.62;101395.43;131093;1256;107581;-73
2023/03/01 04:59:22;;;;;;;137.80;53.70;;;;;;;-4.90;67.53;101396.36;131121;1257;108647;-73
2023/03/01 05:02:27;;;;;;;69.20;29.70;;;;;;;-4.77;67.27;101387.44;131107;1256;107478;-73
2023/03/01 05:05:35;;;;;;;63.00;27.80;;;;;;;-4.67;67.30;101387.63;131184;1256;106685;-74
2023/03/01 05:08:42;;;;;;;64.60;29.90;;;;;;;-4.62;67.10;101386.12;131171;1256;107524;-73
2023/03/01 05:11:48;;;;;;;53.30;23.90;;;;;;;-4.58;67.18;101376.16;131002;1254;107431;-74
2023/03/01 05:14:54;;;;;;;50.70;21.80;;;;;;;-4.56;67.14;101372.83;131159;1264;107708;-73
2023/03/01 05:18:01;;;;;;;50.20;21.70;;;;;;;-4.55;67.34;101382.17;131121;1267;106715;-72
2023/03/01 05:21:10;;;;;;;215.80;83.00;;;;;;;-4.55;67.94;101379.39;131097;1256;107525;-73
2023/03/01 05:24:15;;;;;;;186.20;73.40;;;;;;;-4.50;67.87;101373.22;131103;1256;107444;-73
2023/03/01 05:27:22;;;;;;;105.40;43.70;;;;;;;-4.48;67.91;101373.36;131109;1257;107388;-73
2023/03/01 05:30:28;;;;;;;88.40;39.10;;;;;;;-4.45;68.02;101370.85;131055;1256;107567;-73
2023/03/01 05:33:33;;;;;;;67.30;29.20;;;;;;;-4.41;67.97;101371.14;131022;1256;107463;-74
2023/03/01 05:36:39;;;;;;;73.50;29.70;;;;;;;-4.38;67.79;101365.35;131037;1261;107251;-81
2023/03/01 05:39:44;;;;;;;95.00;44.20;;;;;;;-4.36;68.00;101366.52;131144;1259;107344;-79
2023/03/01 05:42:53;;;;;;;69.50;32.90;;;;;;;-4.33;68.32;101367.50;131064;1253;107664;-82
2023/03/01 05:46:03;;;;;;;74.10;31.70;;;;;;;-4.27;68.63;101375.02;131069;1257;107803;-81
2023/03/01 05:49:09;;;;;;;68.60;32.30;;;;;;;-4.22;68.77;101378.95;131356;1251;108605;-83
2023/03/01 05:52:16;;;;;;;59.60;27.90;;;;;;;-4.17;68.79;101377.26;130980;1255;107551;-80
2023/03/01 05:55:23;;;;;;;51.00;23.10;;;;;;;-4.11;68.87;101384.10;131066;1263;107266;-81
2023/03/01 05:58:28;;;;;;;66.50;30.50;;;;;;;-4.09;68.74;101387.52;131073;1264;109330;-80
2023/03/01 06:01:35;;;;;;;101.50;46.30;;;;;;;-4.05;68.93;101390.39;131220;1257;107629;-82
2023/03/01 06:04:40;;;;;;;61.00;26.20;;;;;;;-3.95;69.01;101385.50;130924;1264;107251;-79
2023/03/01 06:07:46;;;;;;;80.70;35.40;;;;;;;-3.85;68.94;101389.80;131070;1264;107456;-81
2023/03/01 06:10:52;;;;;;;204.20;79.60;;;;;;;-3.71;69.10;101384.45;130973;1258;107584;-80
2023/03/01 06:13:57;;;;;;;148.00;55.70;;;;;;;-3.53;69.18;101379.16;130976;1256;106725;-81
2023/03/01 06:17:03;;;;;;;350.80;114.20;;;;;;;-3.32;69.38;101381.98;131186;1264;107606;-80
2023/03/01 06:20:14;;;;;;;259.30;97.50;;;;;;;-3.12;69.24;101379.41;131075;1257;107161;-80
2023/03/01 06:23:19;;;;;;;138.40;58.30;;;;;;;-2.95;69.15;101379.85;131131;1254;107367;-82
2023/03/01 06:26:25;;;;;;;106.20;46.10;;;;;;;-2.82;69.47;101389.09;131182;1261;107911;-81
2023/03/01 06:29:31;;;;;;;106.30;42.90;;;;;;;-2.72;69.43;101385.00;131198;1251;107503;-81
2023/03/01 06:32:37;;;;;;;173.20;63.10;;;;;;;-2.60;69.75;101386.95;131206;1256;107542;-80
2023/03/01 06:35:42;;;;;;;173.70;64.10;;;;;;;-2.50;69.81;101387.20;131156;1256;107293;-80
2023/03/01 06:38:48;;;;;;;89.90;36.60;;;;;;;-2.42;69.57;101394.66;130936;1258;107543;-80
2023/03/01 06:41:53;;;;;;;122.00;44.20;;;;;;;-2.37;69.85;101396.59;130977;1257;107565;-81
2023/03/01 06:44:59;;;;;;;212.30;70.90;;;;;;;-2.28;70.03;101396.88;131001;1255;108323;-81
2023/03/01 06:48:06;;;;;;;368.00;117.50;;;;;;;-2.18;69.88;101392.41;131235;1253;105468;-80
2023/03/01 06:51:12;;;;;;;468.00;133.90;;;;;;;-2.08;69.76;101394.05;131095;1251;106583;-81
2023/03/01 06:54:18;;;;;;;381.70;106.70;;;;;;;-1.99;69.93;101388.72;131149;1256;107610;-81
2023/03/01 06:57:24;;;;;;;501.10;156.40;;;;;;;-1.89;70.21;101391.75;131230;1264;108080;-81
2023/03/01 07:00:30;;;;;;;551.90;152.20;;;;;;;-1.81;70.20;101393.10;131113;1257;107621;-81
2023/03/01 07:03:36;;;;;;;374.40;93.90;;;;;;;-1.73;70.09;101397.38;131107;1256;107554;-81
2023/03/01 07:06:42;;;;;;;402.20;102.70;;;;;;;-1.62;70.28;101389.88;131066;1252;106680;-80
2023/03/01 07:09:49;;;;;;;235.30;68.50;;;;;;;-1.44;70.22;101387.92;131005;1256;107418;-81
2023/03/01 07:12:57;;;;;;;825.20;259.40;;;;;;;-1.25;70.47;101389.08;131013;1266;107594;-79
2023/03/01 07:16:03;;;;;;;461.70;132.80;;;;;;;-1.08;70.12;101392.38;131024;1251;107392;-80
2023/03/01 07:19:08;;;;;;;395.00;107.70;;;;;;;-0.95;69.99;101389.49;131031;1256;107371;-81
2023/03/01 07:22:14;;;;;;;298.60;83.20;;;;;;;-0.89;70.10;101393.13;131032;1256;107503;-79
2023/03/01 07:25:19;;;;;;;137.70;44.30;;;;;;;-0.82;70.00;101391.66;131371;1256;107385;-81
2023/03/01 07:28:27;;;;;;;439.50;135.30;;;;;;;-0.74;70.08;101390.88;131071;1256;107461;-80
2023/03/01 07:31:32;;;;;;;96.70;35.60;;;;;;;-0.68;70.06;101388.05;131238;1251;107511;-81
2023/03/01 07:34:38;;;;;;;79.10;31.70;;;;;;;-0.66;69.81;101384.83;131045;1267;108044;-82
2023/03/01 07:37:44;;;;;;;132.10;49.70;;;;;;;-0.66;69.96;101386.21;131049;1257;108450;-81
2023/03/01 07:40:49;;;;;;;128.00;44.90;;;;;;;-0.63;70.02;101387.18;131173;1254;105592;-81
2023/03/01 07:43:55;;;;;;;56.80;27.90;;;;;;;-0.60;70.02;101389.51;131126;1257;107550;-82
2023/03/01 07:47:01;;;;;;;73.70;35.20;;;;;;;-0.59;70.15;101387.55;131046;1254;107508;-81
2023/03/01 07:50:07;;;;;;;50.50;26.70;;;;;;;-0.53;70.05;101386.66;131065;1253;107632;-81
2023/03/01 07:53:13;;;;;;;53.70;27.60;;;;;;;-0.46;70.07;101382.03;131212;1251;107358;-81
2023/03/01 07:56:19;;;;;;;50.20;26.40;;;;;;;-0.41;69.89;101379.39;131263;1253;107227;-82
2023/03/01 07:59:28;;;;;;;63.00;36.40;;;;;;;-0.34;69.95;101379.17;131182;1253;107515;-82
2023/03/01 08:02:34;;;;;;;58.60;33.30;;;;;;;-0.27;70.00;101373.83;131215;1254;106532;-80
2023/03/01 08:05:40;;;;;;;74.70;38.70;;;;;;;-0.20;69.84;101365.88;130974;1257;107473;-81
2023/03/01 08:08:46;;;;;;;51.30;26.40;;;;;;;-0.10;70.06;101374.44;131032;1255;107678;-82
2023/03/01 08:11:51;;;;;;;44.90;23.30;;;;;;;0.02;70.01;101373.98;131019;1251;107357;-81
2023/03/01 08:14:57;;;;;;;41.10;21.80;;;;;;;0.19;69.79;101377.00;131049;1257;107497;-82
2023/03/01 08:18:03;;;;;;;40.70;22.20;;;;;;;0.35;69.56;101368.85;130991;1255;107569;-81
2023/03/01 08:21:11;;;;;;;36.20;20.20;;;;;;;0.51;68.95;101367.02;131061;1251;107454;-81
2023/03/01 08:24:17;;;;;;;45.30;23.50;;;;;;;0.60;68.72;101361.41;130988;1256;107676;-83
2023/03/01 08:27:23;;;;;;;39.10;21.50;;;;;;;0.70;69.30;101349.25;131069;1251;105818;-81
2023/03/01 08:30:28;;;;;;;42.50;22.10;;;;;;;0.83;69.12;101345.77;131182;1256;107674;-80
2023/03/01 08:33:34;;;;;;;38.20;20.40;;;;;;;0.92;68.91;101352.23;131215;1256;107454;-80
2023/03/01 08:36:41;;;;;;;51.20;26.00;;;;;;;0.98;69.01;101350.53;130897;1251;107458;-82
2023/03/01 08:39:48;;;;;;;41.50;22.30;;;;;;;1.06;68.88;101351.63;131066;1269;107598;-82
2023/03/01 08:42:53;;;;;;;35.50;19.60;;;;;;;1.12;68.75;101352.24;131039;1251;107577;-82
2023/03/01 08:45:59;;;;;;;35.30;18.60;;;;;;;1.18;68.67;101357.59;130967;1251;107360;-82
2023/03/01 08:49:06;;;;;;;31.30;18.70;;;;;;;1.25;68.60;101356.92;131060;1251;107555;-82
2023/03/01 08:52:12;;;;;;;30.10;17.70;;;;;;;1.32;68.42;101357.89;131038;1251;107431;-81
2023/03/01 08:55:18;;;;;;;30.10;16.90;;;;;;;1.36;67.13;101355.06;131193;1256;107298;-82
2023/03/01 08:58:23;;;;;;;29.70;17.60;;;;;;;1.35;67.00;101354.24;131072;1256;107450;-82
2023/03/01 09:01:29;;;;;;;26.80;16.50;;;;;;;1.43;67.44;101356.89;131049;1256;107502;-81
2023/03/01 09:04:35;;;;;;;27.90;16.20;;;;;;;1.52;66.83;101357.54;131064;1251;106724;-82
2023/03/01 09:07:40;;;;;;;28.80;16.20;;;;;;;1.56;66.41;101358.20;131172;1257;107353;-82
2023/03/01 09:10:46;;;;;;;33.90;19.10;;;;;;;1.64;66.80;101353.32;131176;1255;106589;-83
2023/03/01 09:13:52;;;;;;;32.40;17.90;;;;;;;1.71;65.43;101347.54;131086;1251;105708;-82
2023/03/01 09:16:57;;;;;;;30.00;16.70;;;;;;;1.79;66.24;101347.18;131156;1257;106796;-82
2023/03/01 09:20:05;;;;;;;30.10;16.50;;;;;;;1.92;66.46;101341.34;131151;1257;106532;-82
2023/03/01 09:23:11;;;;;;;25.80;15.10;;;;;;;2.05;65.09;101339.34;131171;1254;107927;-83
2023/03/01 09:26:21;;;;;;;28.50;15.00;;;;;;;2.17;65.29;101342.45;131133;1251;107633;-83
2023/03/01 09:29:27;;;;;;;28.40;15.90;;;;;;;2.30;63.74;101341.66;131120;1251;107519;-82
2023/03/01 09:32:34;;;;;;;22.40;13.40;;;;;;;2.39;63.25;101340.88;131116;1274;107418;-81
2023/03/01 09:35:45;;;;;;;25.20;14.00;;;;;;;2.49;64.67;101335.50;131090;1256;107663;-81
2023/03/01 09:38:53;;;;;;;29.10;16.50;;;;;;;2.61;64.79;101340.70;131054;1257;107243;-82
2023/03/01 09:42:02;;;;;;;25.00;13.90;;;;;;;2.72;64.35;101342.27;131160;1256;107597;-83
2023/03/01 09:45:12;;;;;;;26.00;13.60;;;;;;;2.74;63.59;101341.11;131160;1256;107532;-83
2023/03/01 09:48:23;;;;;;;20.20;12.30;;;;;;;2.81;63.97;101334.96;131136;1251;107360;-81
2023/03/01 09:51:33;;;;;;;26.20;12.90;;;;;;;2.92;64.32;101338.83;131074;1274;107232;-82
2023/03/01 09:54:38;;;;;;;21.50;12.70;;;;;;;2.99;61.66;101344.45;131023;1251;107353;-83
2023/03/01 09:57:50;;;;;;;21.30;12.40;;;;;;;3.03;61.57;101351.48;131013;1251;107571;-83
2023/03/01 10:00:58;;;;;;;23.90;13.00;;;;;;;3.08;61.36;101350.83;131149;1256;107350;-83
2023/03/01 10:04:25;;;;;;;22.00;12.70;;;;;;;3.20;62.23;101347.58;131156;1251;107538;-83
2023/03/01 10:07:42;;;;;;;27.80;14.70;;;;;;;3.27;61.63;101348.84;131099;1257;107537;-82
2023/03/01 10:10:50;;;;;;;20.40;12.30;;;;;;;3.33;61.40;101347.13;131028;1256;107595;-83
2023/03/01 10:14:04;;;;;;;23.20;13.20;;;;;;;3.42;61.03;101344.54;131040;1257;107769;-83
2023/03/01 10:17:17;;;;;;;20.80;12.50;;;;;;;3.47;60.91;101334.21;131020;1251;107006;-83
2023/03/01 10:20:26;;;;;;;26.60;14.50;;;;;;;3.51;60.50;101327.00;130969;1251;107611;-83
2023/03/01 10:23:35;;;;;;;29.80;15.60;;;;;;;3.55;61.42;101314.64;130937;1251;107487;-83
2023/03/01 10:26:49;;;;;;;34.70;16.60;;;;;;;3.63;62.61;101311.42;130986;1257;107820;-83
2023/03/01 10:30:06;;;;;;;28.90;15.50;;;;;;;3.72;63.00;101308.64;131025;1255;107534;-82
2023/03/01 10:33:19;;;;;;;26.00;15.20;;;;;;;3.79;62.71;101305.77;131154;1251;106537;-83
2023/03/01 10:36:25;;;;;;;40.60;21.30;;;;;;;3.81;62.32;101295.67;131047;1251;107544;-82
2023/03/01 10:39:31;;;;;;;54.40;22.90;;;;;;;3.80;62.18;101295.73;131148;1253;107560;-82
2023/03/01 10:42:39;;;;;;;24.50;12.40;;;;;;;3.76;60.21;101289.94;130960;1257;107667;-83
2023/03/01 10:45:45;;;;;;;117.80;51.30;;;;;;;3.71;62.19;101284.26;131094;1253;107398;-83
2023/03/01 10:49:11;;;;;;;188.70;70.40;;;;;;;3.74;62.73;101283.52;131167;1251;107517;-83
2023/03/01 10:52:23;;;;;;;38.40;16.90;;;;;;;3.79;62.20;101283.98;131064;1265;107510;-82
2023/03/01 10:55:35;;;;;;;22.30;12.30;;;;;;;3.78;60.48;101276.80;131120;1251;107531;-83
2023/03/01 10:58:57;;;;;;;20.20;11.90;;;;;;;3.78;59.55;101276.98;131114;1254;107530;-82
2023/03/01 11:02:18;;;;;;;19.30;11.30;;;;;;;3.77;60.67;101272.81;131323;1258;107666;-82
2023/03/01 11:05:28;;;;;;;22.80;12.10;;;;;;;3.83;61.35;101269.70;131105;1256;106401;-83
2023/03/01 11:08:36;;;;;;;513.30;159.00;;;;;;;3.89;61.47;101270.23;131224;1251;107478;-82
2023/03/01 11:11:42;;;;;;;270.40;73.00;;;;;;;3.95;61.63;101266.89;131078;1251;107462;-82
2023/03/01 11:14:51;;;;;;;47.90;16.30;;;;;;;4.00;60.00;101260.66;131180;1250;107627;-82
2023/03/01 11:17:58;;;;;;;116.50;49.70;;;;;;;3.99;60.80;101258.23;131156;1251;107533;-82
2023/03/01 11:21:06;;;;;;;254.00;101.50;;;;;;;4.05;61.01;101260.02;131147;1251;107558;-81
2023/03/01 11:24:16;;;;;;;98.10;34.10;;;;;;;4.11;61.19;101257.02;131189;1263;107520;-82
2023/03/01 11:27:27;;;;;;;111.90;34.40;;;;;;;4.19;60.78;101253.23;131291;1251;107631;-82
2023/03/01 11:30:38;;;;;;;144.10;41.00;;;;;;;4.24;59.57;101251.73;131081;1257;108548;-82
2023/03/01 11:33:49;;;;;;;594.30;200.20;;;;;;;4.25;59.79;101250.08;131144;1257;107378;-82
2023/03/01 11:36:59;;;;;;;456.50;145.80;;;;;;;4.26;60.24;101242.95;131071;1265;109368;-82
2023/03/01 11:40:14;;;;;;;108.50;32.20;;;;;;;4.30;60.13;101245.20;131106;1251;107534;-82
2023/03/01 11:43:28;;;;;;;31.60;13.10;;;;;;;4.35;59.27;101242.44;131082;1252;107516;-82
2023/03/01 11:47:09;;;;;;;262.20;116.30;;;;;;;4.40;60.12;101243.04;131109;1255;107401;-82
2023/03/01 11:50:24;;;;;;;92.30;38.80;;;;;;;4.47;59.67;101244.20;131115;1258;107527;-82
2023/03/01 11:54:02;;;;;;;41.40;21.10;;;;;;;4.47;58.96;101237.37;131214;1254;107603;-82
2023/03/01 11:57:21;;;;;;;23.90;13.00;;;;;;;4.51;59.83;101229.52;131616;1254;107036;-82
2023/03/01 12:00:52;;;;;;;15.80;9.30;;;;;;;4.57;58.47;101235.56;131507;1257;107524;-82
2023/03/01 12:04:19;;;;;;;14.50;9.60;;;;;;;4.51;58.01;101234.08;131331;1251;107491;-82
2023/03/01 12:07:33;;;;;;;14.20;8.60;;;;;;;4.54;59.58;101229.70;131479;1251;107580;-81
2023/03/01 12:10:51;;;;;;;13.10;7.70;;;;;;;4.57;57.69;101226.92;131367;1256;107518;-82
2023/03/01 12:14:24;;;;;;;38.90;18.20;;;;;;;4.61;59.54;101215.72;131662;1251;107548;-82
2023/03/01 12:17:44;;;;;;;22.30;10.20;;;;;;;4.69;59.41;101208.92;132048;1251;107473;-82
2023/03/01 12:20:59;;;;;;;15.10;7.80;;;;;;;4.73;59.67;101206.89;131930;1251;107543;-82
2023/03/01 12:24:35;;;;;;;15.20;8.20;;;;;;;4.80;59.45;101200.85;132003;1256;107435;-80
2023/03/01 12:27:56;;;;;;;17.20;9.20;;;;;;;4.87;59.87;101196.38;131859;1251;107762;-80
2023/03/01 12:31:28;;;;;;;13.60;8.00;;;;;;;4.91;59.36;101194.55;131861;1251;107511;-81
2023/03/01 12:34:53;;;;;;;15.50;9.70;;;;;;;4.92;58.92;101191.98;131564;1254;107649;-80
2023/03/01 12:38:07;;;;;;;69.60;34.30;;;;;;;4.94;59.61;101193.14;131457;1253;107471;-80
2023/03/01 12:41:30;;;;;;;30.40;21.90;;;;;;;4.97;58.90;101203.52;131710;1252;107570;-80
2023/03/01 12:44:55;;;;;;;16.10;10.30;;;;;;;4.98;59.64;101201.00;131597;1256;107530;-80
2023/03/01 12:48:17;;;;;;;21.40;11.00;;;;;;;5.02;60.10;101196.36;131841;1255;107564;-80
2023/03/01 12:51:27;;;;;;;15.90;9.20;;;;;;;5.09;59.74;101194.32;131804;1254;108621;-80
2023/03/01 12:54:36;;;;;;;26.00;13.30;;;;;;;5.13;59.96;101195.14;131679;1255;107407;-80
2023/03/01 12:57:48;;;;;;;14.60;8.50;;;;;;;5.17;59.97;101201.95;131586;1256;107566;-80
2023/03/01 13:01:05;;;;;;;13.80;8.90;;;;;;;5.22;60.07;101195.98;131638;1253;107393;-80
2023/03/01 13:04:28;;;;;;;14.40;8.70;;;;;;;5.19;59.66;101198.11;131739;1256;108764;-80
2023/03/01 13:07:36;;;;;;;;;;;;;;;5.16;59.67;101195.85;131823;1255;107622;-80
2023/03/01 13:10:48;;;;;;;14.60;8.60;;;;;;;5.16;60.44;101202.56;131763;1256;107525;-80
2023/03/01 13:14:14;;;;;;;16.30;9.00;;;;;;;5.17;60.18;101205.48;131850;1251;107523;-80
2023/03/01 13:17:45;;;;;;;14.60;8.60;;;;;;;5.21;60.44;101201.02;131713;1252;107376;-81
2023/03/01 13:20:53;;;;;;;14.90;8.80;;;;;;;5.24;60.26;101203.30;131335;1251;107501;-82
2023/03/01 13:23:58;;;;;;;18.90;10.30;;;;;;;5.30;60.80;101199.59;131377;1251;107552;-80
2023/03/01 13:27:28;;;;;;;34.20;16.90;;;;;;;5.35;60.53;101197.48;131683;1253;107530;-82
2023/03/01 13:30:44;;;;;;;76.40;30.10;;;;;;;5.38;61.13;101190.42;131610;1251;107644;-81
2023/03/01 13:33:50;;;;;;;828.00;339.10;;;;;;;5.40;60.82;101178.42;131478;1254;108572;-81
2023/03/01 13:37:19;;;;;;;646.40;266.30;;;;;;;5.43;61.11;101168.90;131436;1254;107461;-81
2023/03/01 13:41:00;;;;;;;139.80;44.80;;;;;;;5.46;61.26;101160.59;131405;1253;107541;-81
2023/03/01 13:44:21;;;;;;;39.10;17.00;;;;;;;5.50;61.28;101164.39;130515;1262;107643;-81
2023/03/01 13:47:28;;;;;;;24.30;12.70;;;;;;;5.49;61.14;101159.34;130518;1251;107548;-80
2023/03/01 13:50:39;;;;;;;18.00;10.30;;;;;;;5.48;61.35;101158.38;131236;1251;107733;-83
2023/03/01 13:53:48;;;;;;;15.90;10.00;;;;;;;5.46;61.51;101154.95;131224;1251;107530;-80
2023/03/01 13:56:54;;;;;;;447.80;169.20;;;;;;;5.44;61.57;101153.13;131278;1266;107502;-81
2023/03/01 13:59:59;;;;;;;55.00;21.00;;;;;;;5.48;61.78;101152.89;131205;1269;107545;-81